createdAt,value
2022-08-05T00:00:17.271Z,6.13
2022-08-05T00:02:51.525Z,7.93
2022-08-05T00:06:02.699Z,7.45
2022-08-05T00:08:32.603Z,5.90
2022-08-05T00:11:00.215Z,6.78
2022-08-05T00:13:38.082Z,5.72
2022-08-05T00:16:09.612Z,7.15
2022-08-05T00:18:42.088Z,6.68
2022-08-05T00:21:10.281Z,7.13
2022-08-05T00:23:46.267Z,6.55
2022-08-05T00:26:21.991Z,7.50
2022-08-05T00:28:50.469Z,5.22
2022-08-05T00:31:53.064Z,5.45
2022-08-05T00:34:53.258Z,6.68
2022-08-05T00:37:11.071Z,7.30
2022-08-05T00:39:44.282Z,5.00
2022-08-05T00:42:33.106Z,7.55
2022-08-05T00:45:01.038Z,6.47
2022-08-05T00:47:53.160Z,6.65
2022-08-05T00:50:16.606Z,6.85
2022-08-05T00:52:45.521Z,5.25
2022-08-05T00:55:15.972Z,10.15
2022-08-05T00:57:58.720Z,6.00
2022-08-05T01:00:27.937Z,7.40
2022-08-05T01:02:56.104Z,6.40
2022-08-05T01:05:24.365Z,8.57
2022-08-05T01:08:40.188Z,6.13
2022-08-05T01:10:51.633Z,9.73
2022-08-05T01:13:59.010Z,7.95
2022-08-05T01:16:26.219Z,8.45
2022-08-05T01:19:05.592Z,9.35
2022-08-05T01:22:08.015Z,6.57
2022-08-05T01:24:57.413Z,9.35
2022-08-05T01:27:55.621Z,9.40
2022-08-05T01:30:33.820Z,9.80
2022-08-05T01:33:08.330Z,10.38
2022-08-05T01:35:52.038Z,11.05
2022-08-05T01:38:24.694Z,7.20
2022-08-05T01:40:58.705Z,12.20
2022-08-05T01:43:28.958Z,11.82
2022-08-05T01:46:07.362Z,10.35
2022-08-05T01:48:49.472Z,10.90
2022-08-05T01:51:19.033Z,12.45
2022-08-05T01:53:56.899Z,9.32
2022-08-05T01:58:11.072Z,9.18
2022-08-05T01:59:22.039Z,11.52
2022-08-05T02:01:55.732Z,9.25
2022-08-05T02:04:28.677Z,9.15
2022-08-05T02:06:58.697Z,9.95
2022-08-05T02:09:27.096Z,8.90
2022-08-05T02:12:04.208Z,10.50
2022-08-05T02:14:34.503Z,9.18
2022-08-05T02:17:07.949Z,9.50
2022-08-05T02:19:49.294Z,9.13
2022-08-05T02:22:25.588Z,13.25
2022-08-05T02:25:00.064Z,10.85
2022-08-05T02:27:58.586Z,9.05
2022-08-05T02:30:19.083Z,12.93
2022-08-05T02:32:51.601Z,11.35
2022-08-05T02:35:27.933Z,13.35
2022-08-05T02:38:00.278Z,11.00
2022-08-05T02:40:31.150Z,10.63
2022-08-05T02:43:00.792Z,10.90
2022-08-05T02:45:52.738Z,14.10
2022-08-05T02:48:20.495Z,15.32
2022-08-05T02:50:59.614Z,10.63
2022-08-05T02:53:39.103Z,11.88
2022-08-05T02:56:09.321Z,12.50
2022-08-05T02:58:38.406Z,13.35
2022-08-05T03:01:16.078Z,14.20
2022-08-05T03:04:03.413Z,17.60
2022-08-05T03:06:56.562Z,12.73
2022-08-05T03:09:37.519Z,14.50
2022-08-05T03:12:08.098Z,12.60
2022-08-05T03:14:45.652Z,12.70
2022-08-05T03:17:14.026Z,10.32
2022-08-05T03:19:45.532Z,14.20
2022-08-05T03:22:16.388Z,8.50
2022-08-05T03:24:49.046Z,16.35
2022-08-05T03:27:19.389Z,10.02
2022-08-05T03:30:07.746Z,16.23
2022-08-05T03:32:35.547Z,15.27
2022-08-05T03:35:06.389Z,13.90
2022-08-05T03:37:40.999Z,15.63
2022-08-05T03:40:24.580Z,14.93
2022-08-05T03:43:01.474Z,11.07
2022-08-05T03:45:57.606Z,13.70
2022-08-05T03:48:27.007Z,20.08
2022-08-05T03:52:34.963Z,14.43
2022-08-05T03:55:53.869Z,15.45
2022-08-05T03:56:47.748Z,21.88
2022-08-05T03:59:20.933Z,14.88
2022-08-05T04:01:52.177Z,14.68
2022-08-05T04:04:22.286Z,14.17
2022-08-05T04:06:56.657Z,20.67
2022-08-05T04:09:26.542Z,21.05
2022-08-05T04:11:56.375Z,15.75
2022-08-05T04:14:30.147Z,15.13
2022-08-05T04:17:00.441Z,18.85
2022-08-05T04:19:29.030Z,16.60
2022-08-05T04:22:10.119Z,17.88
2022-08-05T04:24:44.076Z,18.63
2022-08-05T04:29:40.391Z,15.32
2022-08-05T04:32:08.900Z,16.02
2022-08-05T04:34:42.679Z,17.40
2022-08-05T04:37:12.710Z,17.20
2022-08-05T04:39:40.758Z,20.08
2022-08-05T04:42:09.496Z,19.63
2022-08-05T04:44:37.459Z,21.42
2022-08-05T04:47:09.533Z,14.43
2022-08-05T04:50:02.599Z,12.63
2022-08-05T04:52:38.145Z,18.90
2022-08-05T04:55:14.497Z,14.32
2022-08-05T04:57:47.937Z,16.65
2022-08-05T05:00:23.617Z,18.08
2022-08-05T05:05:28.247Z,15.00
2022-08-05T05:08:02.508Z,12.45
2022-08-05T05:10:33.300Z,15.90
2022-08-05T05:13:04.345Z,12.48
2022-08-05T05:15:57.395Z,23.55
2022-08-05T05:18:31.242Z,16.55
2022-08-05T05:21:03.282Z,14.27
2022-08-05T05:23:39.310Z,10.90
2022-08-05T05:26:28.835Z,16.20
2022-08-05T05:29:00.715Z,15.40
2022-08-05T05:31:35.765Z,13.43
2022-08-05T05:34:02.333Z,16.70
2022-08-05T05:36:30.956Z,15.65
2022-08-05T05:39:03.849Z,17.08
2022-08-05T05:41:40.528Z,14.52
2022-08-05T05:44:35.485Z,14.63
2022-08-05T05:46:58.342Z,13.00
2022-08-05T05:49:32.009Z,12.18
2022-08-05T05:52:01.266Z,17.92
2022-08-05T05:54:51.077Z,13.38
2022-08-05T05:57:19.838Z,16.75
2022-08-05T05:59:48.767Z,12.27
2022-08-05T06:02:17.224Z,16.05
2022-08-05T06:05:01.216Z,17.73
2022-08-05T06:07:41.548Z,13.48
2022-08-05T06:10:11.845Z,13.02
2022-08-05T06:12:42.256Z,11.60
2022-08-05T06:15:16.204Z,14.32
2022-08-05T06:17:53.324Z,14.80
2022-08-05T06:20:22.348Z,16.58
2022-08-05T06:22:50.755Z,10.85
2022-08-05T06:25:25.055Z,11.00
2022-08-05T06:28:11.728Z,16.08
2022-08-05T06:30:48.866Z,11.43
2022-08-05T06:33:19.031Z,10.77
2022-08-05T06:36:07.684Z,11.85
2022-08-05T06:38:36.831Z,10.73
2022-08-05T06:41:08.015Z,9.85
2022-08-05T06:43:59.012Z,11.15
2022-08-05T06:46:30.233Z,11.95
2022-08-05T06:48:59.348Z,10.35
2022-08-05T06:51:29.467Z,9.43
2022-08-05T06:53:58.965Z,10.00
2022-08-05T06:56:28.237Z,10.73
2022-08-05T06:58:56.126Z,13.93
2022-08-05T07:01:32.069Z,9.10
2022-08-05T07:04:01.340Z,13.13
2022-08-05T07:06:30.238Z,10.07
2022-08-05T07:08:59.532Z,7.32
2022-08-05T07:11:37.017Z,9.10
2022-08-05T07:14:29.717Z,11.27
2022-08-05T07:17:58.677Z,8.80
2022-08-05T07:22:36.917Z,8.93
2022-08-05T07:25:54.287Z,11.18
2022-08-05T07:28:03.921Z,7.40
2022-08-05T07:30:38.517Z,7.72
2022-08-05T07:33:10.658Z,9.15
2022-08-05T07:36:05.227Z,9.43
2022-08-05T07:38:34.054Z,10.63
2022-08-05T07:42:08.541Z,7.60
2022-08-05T07:43:57.461Z,7.20
2022-08-05T07:46:26.777Z,7.18
2022-08-05T07:49:04.306Z,6.13
2022-08-05T07:51:48.991Z,5.85
2022-08-05T07:54:26.586Z,7.18
2022-08-05T07:57:14.734Z,5.60
2022-08-05T07:59:48.988Z,6.55
2022-08-05T08:02:18.080Z,6.38
2022-08-05T08:04:47.707Z,7.43
2022-08-05T08:07:17.853Z,8.48
2022-08-05T08:09:46.110Z,11.25
2022-08-05T08:12:35.158Z,7.63
2022-08-05T08:15:04.608Z,12.82
2022-08-05T08:17:32.970Z,7.05
2022-08-05T08:20:43.889Z,6.30
2022-08-05T08:22:53.237Z,5.47
2022-08-05T08:25:27.158Z,6.72
2022-08-05T08:28:18.542Z,5.53
2022-08-05T08:31:01.547Z,6.55
2022-08-05T08:33:37.751Z,8.20
2022-08-05T08:36:38.218Z,6.78
2022-08-05T08:38:57.011Z,8.20
2022-08-05T08:41:52.215Z,8.20
2022-08-05T08:45:19.417Z,8.20
2022-08-05T08:47:46.879Z,8.65
2022-08-05T08:50:23.110Z,9.82
2022-08-05T08:52:51.755Z,6.80
2022-08-05T08:56:03.175Z,8.23
2022-08-05T08:58:12.981Z,7.35
2022-08-05T09:00:42.928Z,7.90
2022-08-05T09:03:16.316Z,8.48
2022-08-05T09:06:09.189Z,6.75
2022-08-05T09:08:40.037Z,4.93
2022-08-05T09:11:13.687Z,8.43
2022-08-05T09:14:00.680Z,10.05
2022-08-05T09:16:31.036Z,10.15
2022-08-05T09:19:00.234Z,5.15
2022-08-05T09:22:22.171Z,9.25
2022-08-05T09:24:17.798Z,6.22
2022-08-05T09:26:51.861Z,6.65
2022-08-05T09:29:20.200Z,6.95
2022-08-05T09:32:45.857Z,6.78
2022-08-05T09:34:55.322Z,5.53
2022-08-05T09:38:13.054Z,8.00
2022-08-05T09:40:31.302Z,5.03
2022-08-05T09:43:00.375Z,5.18
2022-08-05T09:46:07.570Z,5.07
2022-08-05T09:48:29.535Z,5.70
2022-08-05T09:51:00.668Z,5.97
2022-08-05T09:53:54.703Z,4.00
2022-08-05T09:56:26.249Z,6.68
2022-08-05T09:58:58.105Z,4.82
2022-08-05T10:01:32.047Z,4.20
2022-08-05T10:04:03.562Z,5.20
2022-08-05T10:06:34.070Z,5.40
2022-08-05T10:09:24.956Z,5.32
2022-08-05T10:12:30.053Z,6.35
2022-08-05T10:15:13.797Z,7.60
2022-08-05T10:17:54.486Z,5.28
2022-08-05T10:20:25.179Z,6.40
2022-08-05T10:22:54.568Z,4.55
2022-08-05T10:25:26.308Z,5.65
2022-08-05T10:28:13.166Z,5.60
2022-08-05T10:32:59.315Z,4.57
2022-08-05T10:33:35.183Z,4.80
2022-08-05T10:36:04.905Z,3.17
2022-08-05T10:38:36.195Z,4.53
2022-08-05T10:41:14.600Z,5.47
2022-08-05T10:43:56.577Z,6.47
2022-08-05T10:46:44.630Z,5.18
2022-08-05T10:49:16.766Z,6.20
2022-08-05T10:51:59.851Z,5.20
2022-08-05T10:54:56.431Z,5.30
2022-08-05T10:57:30.888Z,5.35
2022-08-05T11:00:19.850Z,6.72
2022-08-05T11:03:23.805Z,6.45
2022-08-05T11:06:15.213Z,7.10
2022-08-05T11:09:32.386Z,6.60
2022-08-05T11:12:50.347Z,6.50
2022-08-05T11:16:00.475Z,6.50
2022-08-05T11:18:26.977Z,6.93
2022-08-05T11:20:57.392Z,6.63
2022-08-05T11:24:03.181Z,8.80
2022-08-05T11:26:28.207Z,6.65
2022-08-05T11:29:06.757Z,5.97
2022-08-05T11:31:54.230Z,8.55
2022-08-05T11:34:50.985Z,5.93
2022-08-05T11:38:30.194Z,5.72
2022-08-05T11:41:34.701Z,5.28
2022-08-05T11:44:06.032Z,7.03
2022-08-05T11:47:10.225Z,7.22
2022-08-05T11:49:27.254Z,5.75
2022-08-05T11:51:57.706Z,5.75
2022-08-05T11:54:33.383Z,5.03
2022-08-05T11:57:08.372Z,6.43
2022-08-05T11:59:52.054Z,4.95
2022-08-05T12:02:31.963Z,4.72
2022-08-05T12:05:07.203Z,5.43
2022-08-05T12:08:08.521Z,4.95
2022-08-05T12:10:43.273Z,5.60
2022-08-05T12:13:15.799Z,7.03
2022-08-05T12:15:49.819Z,7.55
2022-08-05T12:18:20.619Z,9.63
2022-08-05T12:20:52.070Z,4.85
2022-08-05T12:23:19.793Z,5.65
2022-08-05T12:25:52.496Z,4.75
2022-08-05T12:28:37.123Z,5.55
2022-08-05T12:31:06.627Z,5.38
2022-08-05T12:33:38.793Z,6.57
2022-08-05T12:36:09.194Z,5.45
2022-08-05T12:38:39.610Z,5.22
2022-08-05T12:41:13.354Z,6.10
2022-08-05T12:43:52.695Z,5.93
2022-08-05T12:46:28.064Z,3.97
2022-08-05T12:49:13.263Z,4.25
2022-08-05T12:52:14.355Z,3.60
2022-08-05T12:54:34.067Z,3.95
2022-08-05T12:57:04.448Z,3.42
2022-08-05T13:00:08.715Z,4.20
2022-08-05T13:02:33.011Z,2.25
2022-08-05T13:05:07.605Z,2.17
2022-08-05T13:07:59.547Z,3.28
2022-08-05T13:10:24.158Z,3.13
2022-08-05T13:12:58.516Z,2.65
2022-08-05T13:15:41.076Z,2.47
2022-08-05T13:18:10.507Z,3.20
2022-08-05T13:20:40.445Z,2.60
2022-08-05T13:23:08.599Z,2.42
2022-08-05T13:25:52.744Z,2.88
2022-08-05T13:28:24.115Z,3.13
2022-08-05T13:30:53.097Z,2.65
2022-08-05T13:34:23.041Z,2.15
2022-08-05T13:36:11.125Z,2.63
2022-08-05T13:38:43.061Z,1.40
2022-08-05T13:41:11.268Z,1.90
2022-08-05T13:43:44.247Z,3.78
2022-08-05T13:46:37.781Z,2.72
2022-08-05T13:49:11.516Z,2.25
2022-08-05T13:51:46.148Z,2.28
2022-08-05T13:54:15.892Z,2.78
2022-08-05T13:56:51.235Z,1.90
2022-08-05T13:59:24.070Z,2.13
2022-08-05T14:01:56.796Z,1.88
2022-08-05T14:04:43.860Z,4.15
2022-08-05T14:07:25.439Z,1.75
2022-08-05T14:10:12.048Z,1.90
2022-08-05T14:12:42.679Z,3.42
2022-08-05T14:16:08.517Z,2.58
2022-08-05T14:18:00.738Z,1.98
2022-08-05T14:20:29.454Z,2.40
2022-08-05T14:22:58.704Z,1.08
2022-08-05T14:25:28.090Z,2.75
2022-08-05T14:27:56.744Z,2.38
2022-08-05T14:30:27.982Z,1.92
2022-08-05T14:32:56.702Z,3.10
2022-08-05T14:35:49.921Z,1.88
2022-08-05T14:38:31.833Z,1.67
2022-08-05T14:41:06.249Z,2.20
2022-08-05T14:43:57.619Z,1.80
2022-08-05T14:46:28.410Z,2.50
2022-08-05T14:48:57.797Z,0.98
2022-08-05T14:51:30.815Z,3.65
2022-08-05T14:54:27.919Z,1.42
2022-08-05T14:56:48.804Z,2.05
2022-08-05T14:59:21.211Z,1.25
2022-08-05T15:01:49.914Z,1.70
2022-08-05T15:04:20.542Z,1.65
2022-08-05T15:09:54.106Z,1.83
2022-08-05T15:12:11.671Z,1.90
2022-08-05T15:14:49.609Z,3.25
2022-08-05T15:17:47.302Z,2.58
2022-08-05T15:20:15.670Z,3.15
2022-08-05T15:22:52.134Z,1.42
2022-08-05T15:25:51.501Z,1.83
2022-08-05T15:28:13.386Z,2.90
2022-08-05T15:30:43.451Z,2.42
2022-08-05T15:33:11.964Z,1.75
2022-08-05T15:35:45.473Z,1.02
2022-08-05T15:38:33.952Z,2.17
2022-08-05T15:41:23.358Z,3.38
2022-08-05T15:43:50.849Z,1.48
2022-08-05T15:46:20.435Z,2.80
2022-08-05T15:48:58.700Z,1.92
2022-08-05T15:52:03.982Z,3.08
2022-08-05T15:54:17.952Z,2.28
2022-08-05T15:56:47.087Z,1.98
2022-08-05T15:59:21.806Z,1.88
2022-08-05T16:01:52.901Z,1.10
2022-08-05T16:04:25.409Z,3.03
2022-08-05T16:06:54.027Z,1.90
2022-08-05T16:09:23.593Z,2.08
2022-08-05T16:11:53.801Z,2.10
2022-08-05T16:14:22.282Z,2.65
2022-08-05T16:16:50.990Z,1.27
2022-08-05T16:20:03.307Z,2.65
2022-08-05T16:22:10.612Z,3.28
2022-08-05T16:24:41.626Z,3.00
2022-08-05T16:27:46.934Z,2.28
2022-08-05T16:30:25.593Z,1.48
2022-08-05T16:32:54.339Z,3.33
2022-08-05T16:35:27.625Z,2.60
2022-08-05T16:38:03.553Z,1.30
2022-08-05T16:40:51.846Z,1.23
2022-08-05T16:43:25.594Z,2.88
2022-08-05T16:46:03.762Z,2.65
2022-08-05T16:48:38.946Z,2.92
2022-08-05T16:51:09.235Z,2.22
2022-08-05T16:54:03.991Z,2.67
2022-08-05T16:56:27.198Z,1.58
2022-08-05T16:58:56.689Z,1.38
2022-08-05T17:01:24.892Z,1.92
2022-08-05T17:03:52.818Z,2.88
2022-08-05T17:06:20.931Z,0.70
2022-08-05T17:08:54.473Z,2.20
2022-08-05T17:11:25.105Z,1.42
2022-08-05T17:13:54.700Z,1.92
2022-08-05T17:16:36.433Z,2.47
2022-08-05T17:19:07.313Z,2.60
2022-08-05T17:24:18.481Z,1.85
2022-08-05T17:26:55.568Z,1.10
2022-08-05T17:29:32.816Z,1.73
2022-08-05T17:32:03.310Z,1.15
2022-08-05T17:34:32.260Z,2.15
2022-08-05T17:37:04.449Z,2.42
2022-08-05T17:39:33.983Z,1.10
2022-08-05T17:42:19.137Z,2.03
2022-08-05T17:44:50.271Z,0.75
2022-08-05T17:47:22.122Z,1.63
2022-08-05T17:50:00.117Z,1.55
2022-08-05T17:52:32.453Z,2.35
2022-08-05T17:55:00.606Z,1.98
2022-08-05T17:57:31.327Z,2.05
2022-08-05T18:00:03.822Z,1.90
2022-08-05T18:02:35.554Z,2.22
2022-08-05T18:05:07.552Z,3.47
2022-08-05T18:07:41.781Z,2.42
2022-08-05T18:10:11.594Z,3.10
2022-08-05T18:12:48.373Z,2.05
2022-08-05T18:15:16.251Z,1.65
2022-08-05T18:18:01.596Z,1.15
2022-08-05T18:20:32.681Z,1.15
2022-08-05T18:23:11.417Z,2.38
2022-08-05T18:25:44.040Z,1.73
2022-08-05T18:28:16.613Z,0.95
2022-08-05T18:30:45.299Z,1.17
2022-08-05T18:33:14.784Z,1.60
2022-08-05T18:38:19.384Z,2.33
2022-08-05T18:41:53.267Z,1.98
2022-08-05T18:43:43.224Z,1.92
2022-08-05T18:46:20.294Z,2.53
2022-08-05T18:48:52.304Z,2.17
2022-08-05T18:54:25.529Z,1.80
2022-08-05T18:56:53.316Z,1.83
2022-08-05T18:59:42.840Z,1.55
2022-08-05T19:02:11.254Z,3.20
2022-08-05T19:05:02.671Z,2.63
2022-08-05T19:07:45.578Z,2.67
2022-08-05T19:10:14.905Z,2.50
2022-08-05T19:12:43.308Z,2.72
2022-08-05T19:15:56.788Z,2.47
2022-08-05T19:18:10.213Z,3.95
2022-08-05T19:20:46.949Z,4.15
2022-08-05T19:23:22.649Z,4.20
2022-08-05T19:26:03.227Z,2.83
2022-08-05T19:28:32.882Z,2.53
2022-08-05T19:31:01.356Z,1.80
2022-08-05T19:33:36.169Z,1.70
2022-08-05T19:36:07.019Z,3.55
2022-08-05T19:38:35.661Z,2.67
2022-08-05T19:41:07.037Z,2.00
2022-08-05T19:46:30.305Z,2.90
2022-08-05T19:49:01.227Z,2.05
2022-08-05T19:52:05.390Z,3.95
2022-08-05T19:54:27.165Z,3.45
2022-08-05T19:56:59.982Z,2.40
2022-08-05T19:59:55.306Z,3.63
2022-08-05T20:02:18.886Z,1.95
2022-08-05T20:04:48.485Z,4.45
2022-08-05T20:07:48.826Z,4.85
2022-08-05T20:10:11.804Z,2.25
2022-08-05T20:12:46.023Z,3.50
2022-08-05T20:15:15.899Z,2.40
2022-08-05T20:18:10.750Z,3.53
2022-08-05T20:20:55.822Z,2.50
2022-08-05T20:23:39.873Z,2.63
2022-08-05T20:26:17.189Z,3.70
2022-08-05T20:28:47.938Z,3.33
2022-08-05T20:31:16.475Z,3.67
2022-08-05T20:33:45.157Z,2.95
2022-08-05T20:36:14.338Z,2.72
2022-08-05T20:38:54.524Z,3.97
2022-08-05T20:41:27.404Z,2.40
2022-08-05T20:44:17.551Z,2.65
2022-08-05T20:46:47.538Z,1.35
2022-08-05T20:49:24.213Z,4.70
2022-08-05T20:51:54.278Z,2.95
2022-08-05T20:54:25.314Z,3.75
2022-08-05T20:56:53.229Z,2.30
2022-08-05T20:59:26.466Z,2.40
2022-08-05T21:01:57.974Z,4.32
2022-08-05T21:04:26.906Z,3.28
2022-08-05T21:06:55.822Z,1.85
2022-08-05T21:09:25.083Z,2.65
2022-08-05T21:12:09.748Z,2.72
2022-08-05T21:14:38.840Z,2.92
2022-08-05T21:17:06.809Z,2.78
2022-08-05T21:19:46.939Z,2.83
2022-08-05T21:22:18.332Z,2.58
2022-08-05T21:24:51.908Z,3.25
2022-08-05T21:27:20.655Z,1.70
2022-08-05T21:29:54.046Z,1.52
2022-08-05T21:32:23.441Z,3.67
2022-08-05T21:34:56.045Z,4.25
2022-08-05T21:37:41.472Z,3.72
2022-08-05T21:40:14.189Z,2.50
2022-08-05T21:42:45.642Z,4.35
2022-08-05T21:45:24.271Z,3.47
2022-08-05T21:47:57.084Z,3.05
2022-08-05T21:50:26.048Z,2.88
2022-08-05T21:52:58.915Z,2.03
2022-08-05T21:56:01.758Z,3.55
2022-08-05T21:58:24.805Z,2.28
2022-08-05T22:00:58.620Z,3.00
2022-08-05T22:03:48.634Z,3.40
2022-08-05T22:06:14.178Z,3.80
2022-08-05T22:08:42.450Z,3.45
2022-08-05T22:11:15.613Z,2.97
2022-08-05T22:14:33.837Z,3.45
2022-08-05T22:16:42.080Z,4.72
2022-08-05T22:20:02.075Z,1.92
2022-08-05T22:22:08.732Z,2.58
2022-08-05T22:24:55.846Z,5.65
2022-08-05T22:28:09.061Z,3.88
2022-08-05T22:30:32.157Z,4.47
2022-08-05T22:33:03.469Z,5.50
2022-08-05T22:35:47.900Z,3.95
2022-08-05T22:38:16.996Z,3.33
2022-08-05T22:40:50.011Z,4.13
2022-08-05T22:43:36.872Z,3.58
2022-08-05T22:46:13.206Z,5.13
2022-08-05T22:48:50.865Z,3.15
2022-08-05T22:51:22.979Z,4.53
2022-08-05T22:53:57.669Z,3.22
2022-08-05T22:56:30.703Z,6.78
2022-08-05T22:59:03.129Z,3.28
2022-08-05T23:02:03.815Z,5.68
2022-08-05T23:04:21.126Z,3.17
2022-08-05T23:06:49.005Z,3.22
2022-08-05T23:09:27.308Z,3.30
2022-08-05T23:12:05.582Z,2.28
2022-08-05T23:14:35.256Z,3.97
2022-08-05T23:17:24.215Z,3.33
2022-08-05T23:20:02.416Z,4.47
2022-08-05T23:22:30.815Z,3.22
2022-08-05T23:24:59.262Z,3.58
2022-08-05T23:27:28.839Z,5.60
2022-08-05T23:30:01.707Z,4.78
2022-08-05T23:32:35.817Z,3.60
2022-08-05T23:35:03.618Z,5.57
2022-08-05T23:37:34.318Z,4.53
2022-08-05T23:40:07.872Z,3.05
2022-08-05T23:42:37.828Z,4.18
2022-08-05T23:45:14.082Z,6.57
2022-08-05T23:47:47.667Z,3.38
2022-08-05T23:50:17.143Z,3.30
2022-08-05T23:52:50.482Z,3.05
2022-08-05T23:55:19.852Z,5.60
2022-08-05T23:57:52.721Z,2.95
